Time;durP1;ratioP1;P1;durP2;ratioP2;P2;SDS_P1;SDS_P2;PMS_P1;PMS_P2;Temp;Humidity;BMP_temperature;BMP_pressure;BME280_temperature;BME280_humidity;BME280_pressure;Samples;Min_cycle;Max_cycle;Signal;HPM_P1;HPM_P2
2023/02/19 00:01:30;;;;;;;4.68;1.50;;;;;;;;;;5020871;28;20021;-66
2023/02/19 00:03:56;;;;;;;3.90;1.63;;;;;;;;;;5022021;28;20080;-66
2023/02/19 00:06:22;;;;;;;4.50;1.60;;;;;;;;;;5018840;28;20024;-67
2023/02/19 00:08:48;;;;;;;3.85;1.30;;;;;;;;;;5027889;28;20025;-67
2023/02/19 00:11:14;;;;;;;4.07;1.60;;;;;;;;;;5027509;28;20085;-66
2023/02/19 00:13:43;;;;;;;5.97;1.42;;;;;;;;;;5027213;28;20061;-66
2023/02/19 00:16:09;;;;;;;6.32;1.70;;;;;;;;;;5026877;28;20021;-66
2023/02/19 00:18:34;;;;;;;5.13;1.80;;;;;;;;;;5025824;28;20369;-66
2023/02/19 00:20:59;;;;;;;4.15;1.50;;;;;;;;;;5027554;28;20041;-67
2023/02/19 00:23:25;;;;;;;5.83;1.57;;;;;;;;;;5027630;28;20358;-66
2023/02/19 00:25:50;;;;;;;3.85;1.50;;;;;;;;;;5026978;28;20024;-67
2023/02/19 00:28:16;;;;;;;4.30;1.50;;;;;;;;;;5029178;28;20114;-67
2023/02/19 00:30:41;;;;;;;5.90;1.60;;;;;;;;;;5027078;28;20052;-66
2023/02/19 00:33:07;;;;;;;6.07;1.70;;;;;;;;;;5027952;28;20025;-66
2023/02/19 00:35:33;;;;;;;5.78;1.60;;;;;;;;;;5025537;28;20117;-66
2023/02/19 00:37:58;;;;;;;4.78;1.60;;;;;;;;;;5027697;28;20463;-67
2023/02/19 00:40:24;;;;;;;4.88;1.50;;;;;;;;;;5034136;28;20033;-66
2023/02/19 00:42:50;;;;;;;4.63;1.58;;;;;;;;;;5032395;28;20021;-66
2023/02/19 00:45:15;;;;;;;4.63;1.55;;;;;;;;;;5033538;28;20381;-66
2023/02/19 00:47:40;;;;;;;4.67;1.50;;;;;;;;;;5031870;28;20115;-66
2023/02/19 00:50:05;;;;;;;5.37;1.63;;;;;;;;;;5032573;28;20431;-65
2023/02/19 00:52:30;;;;;;;4.15;1.35;;;;;;;;;;5029563;28;20049;-66
2023/02/19 00:54:55;;;;;;;5.40;1.60;;;;;;;;;;5030172;28;20021;-66
2023/02/19 00:57:20;;;;;;;5.63;1.70;;;;;;;;;;5033735;28;20063;-66
2023/02/19 00:59:46;;;;;;;5.47;1.80;;;;;;;;;;5029603;28;20033;-66
2023/02/19 01:02:11;;;;;;;5.50;1.40;;;;;;;;;;5030592;28;20034;-67
2023/02/19 01:04:36;;;;;;;4.25;1.45;;;;;;;;;;5037511;28;20041;-67
2023/02/19 01:07:01;;;;;;;4.88;1.52;;;;;;;;;;5038588;28;20025;-66
2023/02/19 01:09:26;;;;;;;5.27;1.67;;;;;;;;;;5022544;28;20055;-66
2023/02/19 01:11:51;;;;;;;5.05;1.40;;;;;;;;;;5028083;28;20026;-66
2023/02/19 01:14:16;;;;;;;5.10;1.50;;;;;;;;;;5030265;28;20452;-66
2023/02/19 01:16:42;;;;;;;4.78;1.50;;;;;;;;;;5031176;28;20025;-66
2023/02/19 01:19:07;;;;;;;5.43;1.40;;;;;;;;;;5031323;28;20087;-67
2023/02/19 01:21:32;;;;;;;5.27;1.57;;;;;;;;;;5028546;28;20025;-67
2023/02/19 01:23:57;;;;;;;3.45;1.20;;;;;;;;;;5028344;28;20546;-68
2023/02/19 01:26:24;;;;;;;5.10;1.30;;;;;;;;;;5030058;28;20493;-67
2023/02/19 01:28:49;;;;;;;4.53;1.25;;;;;;;;;;5031075;28;20107;-67
2023/02/19 01:31:16;;;;;;;4.65;1.27;;;;;;;;;;5033643;28;20025;-66
2023/02/19 01:33:45;;;;;;;3.83;1.20;;;;;;;;;;5036443;28;20116;-67
2023/02/19 01:36:11;;;;;;;4.35;1.35;;;;;;;;;;5030561;28;20025;-66
2023/02/19 01:38:36;;;;;;;4.00;1.17;;;;;;;;;;5029844;28;20017;-67
2023/02/19 01:41:03;;;;;;;4.78;1.27;;;;;;;;;;5027940;28;20081;-67
2023/02/19 01:43:28;;;;;;;;;;;;;;;;;;5031058;28;20029;-67
2023/02/19 01:45:53;;;;;;;3.63;1.20;;;;;;;;;;5026685;28;19996;-66
2023/02/19 01:48:24;;;;;;;4.18;1.38;;;;;;;;;;5030461;28;20037;-67
2023/02/19 01:50:52;;;;;;;4.38;1.50;;;;;;;;;;5028493;28;20520;-67
2023/02/19 01:53:19;;;;;;;4.15;1.55;;;;;;;;;;5029339;28;20040;-67
2023/02/19 01:55:45;;;;;;;4.03;1.45;;;;;;;;;;5028219;28;20117;-66
2023/02/19 01:58:11;;;;;;;5.45;1.70;;;;;;;;;;5028753;28;20022;-67
2023/02/19 02:00:36;;;;;;;5.32;1.67;;;;;;;;;;5028929;28;20044;-65
2023/02/19 02:03:01;;;;;;;5.10;1.70;;;;;;;;;;5029566;28;20031;-65
2023/02/19 02:05:41;;;;;;;4.20;1.40;;;;;;;;;;5030302;28;20152;-67
2023/02/19 02:10:50;;;;;;;;;;;;;;;;;;5029157;28;20055;-65
2023/02/19 02:13:15;;;;;;;5.15;1.70;;;;;;;;;;5025067;28;19952;-65
2023/02/19 02:15:48;;;;;;;4.85;1.70;;;;;;;;;;5023386;28;20488;-67
2023/02/19 02:18:34;;;;;;;5.50;1.40;;;;;;;;;;5026620;28;20033;-65
2023/02/19 02:21:08;;;;;;;4.35;1.50;;;;;;;;;;5031104;28;20036;-66
2023/02/19 02:23:38;;;;;;;3.08;1.15;;;;;;;;;;5037708;28;20083;-66
2023/02/19 02:26:06;;;;;;;3.67;1.10;;;;;;;;;;5027493;28;20025;-66
2023/02/19 02:28:31;;;;;;;5.45;1.38;;;;;;;;;;5028315;28;20021;-67
2023/02/19 02:30:58;;;;;;;3.65;1.20;;;;;;;;;;5029756;28;20036;-66
2023/02/19 02:33:42;;;;;;;4.68;1.20;;;;;;;;;;5020440;28;20036;-65
2023/02/19 02:36:15;;;;;;;3.17;1.02;;;;;;;;;;5030070;28;20018;-66
2023/02/19 02:38:41;;;;;;;4.53;1.20;;;;;;;;;;5028366;28;20009;-66
2023/02/19 02:41:07;;;;;;;4.07;1.10;;;;;;;;;;5033924;28;20125;-65
2023/02/19 02:43:32;;;;;;;4.43;1.17;;;;;;;;;;5032167;28;20124;-66
2023/02/19 02:45:57;;;;;;;2.93;0.87;;;;;;;;;;5030872;28;20018;-66
2023/02/19 02:48:25;;;;;;;3.43;1.03;;;;;;;;;;5034077;28;20455;-65
2023/02/19 02:50:54;;;;;;;4.28;1.10;;;;;;;;;;5034190;28;20026;-67
2023/02/19 02:56:12;;;;;;;3.53;1.00;;;;;;;;;;5036484;28;20094;-67
2023/02/19 02:58:37;;;;;;;2.95;0.90;;;;;;;;;;5030435;28;20033;-68
2023/02/19 03:03:52;;;;;;;2.95;0.90;;;;;;;;;;5026983;28;20486;-68
2023/02/19 03:06:19;;;;;;;3.50;0.98;;;;;;;;;;5032877;28;20041;-70
2023/02/19 03:08:55;;;;;;;2.60;0.80;;;;;;;;;;5030535;28;20040;-68
2023/02/19 03:19:41;;;;;;;3.17;0.80;;;;;;;;;;5035117;28;20055;-68
2023/02/19 03:22:13;;;;;;;2.50;0.70;;;;;;;;;;5030760;28;20061;-69
2023/02/19 03:27:27;;;;;;;2.15;0.60;;;;;;;;;;5026106;28;20078;-66
2023/02/19 03:29:53;;;;;;;2.47;0.85;;;;;;;;;;5033381;28;20055;-67
2023/02/19 03:32:22;;;;;;;2.20;0.70;;;;;;;;;;5042718;28;20059;-66
2023/02/19 03:34:52;;;;;;;2.13;0.70;;;;;;;;;;5030161;28;20021;-67
2023/02/19 03:37:23;;;;;;;2.05;0.77;;;;;;;;;;5034315;28;20489;-65
2023/02/19 03:39:48;;;;;;;1.83;0.50;;;;;;;;;;5031495;28;20033;-68
2023/02/19 03:42:13;;;;;;;2.57;0.80;;;;;;;;;;5022096;28;20083;-65
2023/02/19 03:44:41;;;;;;;1.85;0.70;;;;;;;;;;5035673;28;20726;-68
2023/02/19 03:47:14;;;;;;;2.25;0.70;;;;;;;;;;5028711;28;20611;-67
2023/02/19 03:49:55;;;;;;;2.65;0.70;;;;;;;;;;5032168;28;20034;-66
2023/02/19 03:52:38;;;;;;;2.72;0.70;;;;;;;;;;5035309;28;20024;-66
2023/02/19 03:55:11;;;;;;;2.05;0.70;;;;;;;;;;5032072;28;20456;-65
2023/02/19 03:57:37;;;;;;;3.08;0.70;;;;;;;;;;5027506;28;20107;-68
2023/02/19 04:00:22;;;;;;;2.67;0.70;;;;;;;;;;5026440;28;20029;-67
2023/02/19 04:03:06;;;;;;;1.83;0.50;;;;;;;;;;5010126;28;20018;-67
2023/02/19 04:05:33;;;;;;;1.42;0.47;;;;;;;;;;5016363;28;20096;-66
2023/02/19 04:08:02;;;;;;;1.27;0.43;;;;;;;;;;5018497;28;20030;-67
2023/02/19 04:10:28;;;;;;;1.40;0.50;;;;;;;;;;5026608;28;20500;-67
2023/02/19 04:13:01;;;;;;;2.00;0.57;;;;;;;;;;5028859;28;20067;-68
2023/02/19 04:15:28;;;;;;;1.02;0.30;;;;;;;;;;5021900;28;20026;-66
2023/02/19 04:17:55;;;;;;;1.52;0.40;;;;;;;;;;5032410;28;20586;-65
2023/02/19 04:20:21;;;;;;;1.20;0.30;;;;;;;;;;5031055;28;20032;-67
2023/02/19 04:22:47;;;;;;;0.88;0.30;;;;;;;;;;5031717;28;20516;-67
2023/02/19 04:25:12;;;;;;;1.35;0.40;;;;;;;;;;5034628;28;20022;-68
2023/02/19 04:27:38;;;;;;;0.43;0.20;;;;;;;;;;5032518;28;20039;-66
2023/02/19 04:30:04;;;;;;;0.40;0.15;;;;;;;;;;5030487;28;20033;-67
2023/02/19 04:32:29;;;;;;;2.33;0.30;;;;;;;;;;5030682;28;21225;-68
2023/02/19 04:34:54;;;;;;;0.73;0.20;;;;;;;;;;5031553;28;20115;-68
2023/02/19 04:37:19;;;;;;;0.77;0.30;;;;;;;;;;5028268;28;20380;-68
2023/02/19 04:39:44;;;;;;;0.50;0.20;;;;;;;;;;5031490;28;20456;-67
2023/02/19 04:42:10;;;;;;;0.73;0.27;;;;;;;;;;5032744;28;20426;-67
2023/02/19 04:44:35;;;;;;;0.60;0.23;;;;;;;;;;5031327;28;20420;-68
2023/02/19 04:47:00;;;;;;;1.20;0.25;;;;;;;;;;5030490;28;20021;-67
2023/02/19 04:49:25;;;;;;;1.23;0.25;;;;;;;;;;5030227;28;20114;-68
2023/02/19 04:51:50;;;;;;;0.45;0.20;;;;;;;;;;5028580;28;20169;-68
2023/02/19 04:54:15;;;;;;;1.02;0.28;;;;;;;;;;5031225;28;20033;-67
2023/02/19 04:56:40;;;;;;;0.90;0.17;;;;;;;;;;5029814;28;20357;-67
2023/02/19 04:59:06;;;;;;;0.52;0.20;;;;;;;;;;5044910;28;20061;-67
2023/02/19 05:01:31;;;;;;;0.60;0.20;;;;;;;;;;5031556;28;20025;-67
2023/02/19 05:03:56;;;;;;;0.87;0.30;;;;;;;;;;5030069;28;20489;-67
2023/02/19 05:06:21;;;;;;;0.40;0.17;;;;;;;;;;5030271;28;20087;-67
2023/02/19 05:08:46;;;;;;;1.07;0.40;;;;;;;;;;5030411;28;20460;-67
2023/02/19 05:11:12;;;;;;;0.20;0.10;;;;;;;;;;5032483;28;20018;-67
2023/02/19 05:13:37;;;;;;;1.20;0.23;;;;;;;;;;5031207;28;20025;-68
2023/02/19 05:16:04;;;;;;;0.68;0.30;;;;;;;;;;5030318;28;20134;-67
2023/02/19 05:18:30;;;;;;;0.73;0.30;;;;;;;;;;5033429;28;20052;-68
2023/02/19 05:20:56;;;;;;;1.40;0.43;;;;;;;;;;5030113;28;20449;-69
2023/02/19 05:23:21;;;;;;;3.88;0.57;;;;;;;;;;5029404;28;20013;-68
2023/02/19 05:25:47;;;;;;;2.27;0.50;;;;;;;;;;5029722;28;20473;-68
2023/02/19 05:28:15;;;;;;;1.90;0.52;;;;;;;;;;5027587;28;20032;-66
2023/02/19 05:30:41;;;;;;;2.97;0.63;;;;;;;;;;5030031;28;20032;-68
2023/02/19 05:33:06;;;;;;;2.30;0.80;;;;;;;;;;5034556;28;20393;-68
2023/02/19 05:35:31;;;;;;;3.00;0.60;;;;;;;;;;5035368;28;20437;-68
2023/02/19 05:37:56;;;;;;;2.20;0.80;;;;;;;;;;5034228;28;20018;-68
2023/02/19 05:40:21;;;;;;;1.95;0.52;;;;;;;;;;5034737;28;20029;-68
2023/02/19 05:42:46;;;;;;;2.15;0.65;;;;;;;;;;5033591;28;20511;-68
2023/02/19 05:45:11;;;;;;;1.10;0.40;;;;;;;;;;5031736;28;20017;-67
2023/02/19 05:47:37;;;;;;;1.30;0.45;;;;;;;;;;5037079;28;20014;-68
2023/02/19 05:50:02;;;;;;;1.85;0.40;;;;;;;;;;5034841;28;20649;-68
2023/02/19 05:52:27;;;;;;;1.73;0.30;;;;;;;;;;5028804;28;20029;-68
2023/02/19 05:54:52;;;;;;;0.52;0.20;;;;;;;;;;5031337;28;20024;-68
2023/02/19 05:57:19;;;;;;;0.90;0.22;;;;;;;;;;5027775;28;20326;-67
2023/02/19 05:59:44;;;;;;;;;;;;;;;;;;5030147;28;20046;-68
2023/02/19 06:02:09;;;;;;;0.52;0.20;;;;;;;;;;5027671;28;19909;-68
2023/02/19 06:04:34;;;;;;;1.10;0.32;;;;;;;;;;5029020;28;20057;-68
2023/02/19 06:06:59;;;;;;;0.85;0.30;;;;;;;;;;5027516;28;20029;-67
2023/02/19 06:09:25;;;;;;;1.38;0.32;;;;;;;;;;5030340;28;20025;-67
2023/02/19 06:11:50;;;;;;;0.60;0.20;;;;;;;;;;5032765;28;20495;-68
2023/02/19 06:14:15;;;;;;;0.95;0.30;;;;;;;;;;5028349;28;20021;-68
2023/02/19 06:16:40;;;;;;;2.08;0.60;;;;;;;;;;5030003;28;20033;-68
2023/02/19 06:19:06;;;;;;;2.15;0.70;;;;;;;;;;5033219;28;20452;-68
2023/02/19 06:21:31;;;;;;;1.67;0.55;;;;;;;;;;5029127;28;20033;-68
2023/02/19 06:23:56;;;;;;;2.00;0.50;;;;;;;;;;5026485;28;20441;-67
2023/02/19 06:26:22;;;;;;;1.03;0.33;;;;;;;;;;5029809;28;20034;-67
2023/02/19 06:28:48;;;;;;;2.42;0.50;;;;;;;;;;5025026;28;20485;-68
2023/02/19 06:31:14;;;;;;;1.50;0.50;;;;;;;;;;5028009;28;20025;-68
2023/02/19 06:33:39;;;;;;;1.83;0.57;;;;;;;;;;5022082;28;20021;-67
2023/02/19 06:36:05;;;;;;;0.70;0.30;;;;;;;;;;5026882;28;20444;-68
2023/02/19 06:38:30;;;;;;;1.05;0.40;;;;;;;;;;5029935;28;20013;-67
2023/02/19 06:40:59;;;;;;;1.60;0.52;;;;;;;;;;5027257;28;20025;-68
2023/02/19 06:43:24;;;;;;;1.52;0.47;;;;;;;;;;5023140;28;20032;-68
2023/02/19 06:45:49;;;;;;;1.45;0.40;;;;;;;;;;5027728;28;20033;-67
2023/02/19 06:48:14;;;;;;;1.00;0.40;;;;;;;;;;5028945;28;20542;-68
2023/02/19 06:50:39;;;;;;;1.83;0.50;;;;;;;;;;5029830;28;20093;-68
2023/02/19 06:53:05;;;;;;;1.35;0.40;;;;;;;;;;5028313;28;20040;-68
2023/02/19 06:55:30;;;;;;;0.67;0.30;;;;;;;;;;5027766;28;20871;-68
2023/02/19 06:57:56;;;;;;;1.55;0.40;;;;;;;;;;5028942;28;20041;-68
2023/02/19 07:00:21;;;;;;;2.50;0.45;;;;;;;;;;5027277;28;20029;-68
2023/02/19 07:02:46;;;;;;;1.77;0.50;;;;;;;;;;5027577;28;20392;-67
2023/02/19 07:05:11;;;;;;;0.97;0.40;;;;;;;;;;5027430;28;20040;-68
2023/02/19 07:07:36;;;;;;;4.15;0.52;;;;;;;;;;5032147;28;20078;-69
2023/02/19 07:10:02;;;;;;;0.70;0.40;;;;;;;;;;5031085;28;20026;-68
2023/02/19 07:12:27;;;;;;;1.30;0.50;;;;;;;;;;5038864;28;20014;-67
2023/02/19 07:14:52;;;;;;;1.60;0.50;;;;;;;;;;5042466;28;20021;-68
2023/02/19 07:17:18;;;;;;;1.15;0.50;;;;;;;;;;5025793;28;20048;-68
2023/02/19 07:19:43;;;;;;;1.65;0.40;;;;;;;;;;5027243;28;20017;-66
2023/02/19 07:22:08;;;;;;;2.88;0.52;;;;;;;;;;5025611;28;20029;-66
2023/02/19 07:24:33;;;;;;;3.30;0.90;;;;;;;;;;5024980;28;20032;-68
2023/02/19 07:26:58;;;;;;;1.98;0.65;;;;;;;;;;5031269;28;20062;-69
2023/02/19 07:29:23;;;;;;;3.38;0.77;;;;;;;;;;5027403;28;20040;-68
2023/02/19 07:31:48;;;;;;;2.67;0.80;;;;;;;;;;5031436;28;20029;-68
2023/02/19 07:34:14;;;;;;;2.72;0.80;;;;;;;;;;5035711;28;20029;-69
2023/02/19 07:36:39;;;;;;;4.47;0.90;;;;;;;;;;5033398;28;20037;-65
2023/02/19 07:39:04;;;;;;;2.67;0.90;;;;;;;;;;5019303;28;20495;-68
2023/02/19 07:41:29;;;;;;;2.85;0.90;;;;;;;;;;5020876;28;20025;-67
2023/02/19 07:43:54;;;;;;;2.42;0.90;;;;;;;;;;5027347;28;20093;-69
2023/02/19 07:46:20;;;;;;;2.10;0.70;;;;;;;;;;5032693;28;20030;-69
2023/02/19 07:48:45;;;;;;;1.90;0.60;;;;;;;;;;5029814;28;20034;-68
2023/02/19 07:51:12;;;;;;;2.35;0.77;;;;;;;;;;5032936;28;20121;-67
2023/02/19 07:53:37;;;;;;;2.30;0.80;;;;;;;;;;5030390;28;20083;-67
2023/02/19 07:56:03;;;;;;;2.00;0.70;;;;;;;;;;5032117;28;20116;-68
2023/02/19 07:58:29;;;;;;;2.75;0.88;;;;;;;;;;5031882;28;20029;-68
2023/02/19 08:00:54;;;;;;;3.15;1.00;;;;;;;;;;5029842;28;20038;-68
2023/02/19 08:03:19;;;;;;;2.63;0.90;;;;;;;;;;5029504;28;20040;-66
2023/02/19 08:05:44;;;;;;;4.63;0.80;;;;;;;;;;5029816;28;20029;-69
2023/02/19 08:08:11;;;;;;;3.43;0.80;;;;;;;;;;5027556;28;20071;-66
2023/02/19 08:13:26;;;;;;;2.72;0.70;;;;;;;;;;5031143;28;20067;-68
2023/02/19 08:15:53;;;;;;;2.72;0.90;;;;;;;;;;5036732;28;20424;-66
2023/02/19 08:18:19;;;;;;;2.72;0.80;;;;;;;;;;5034082;28;20079;-66
2023/02/19 08:20:44;;;;;;;2.47;0.90;;;;;;;;;;5034662;28;20037;-66
2023/02/19 08:23:10;;;;;;;2.47;0.97;;;;;;;;;;5027913;28;20370;-66
2023/02/19 08:25:35;;;;;;;3.42;1.00;;;;;;;;;;5027872;28;20025;-67
2023/02/19 08:28:01;;;;;;;2.80;1.00;;;;;;;;;;5034423;28;20032;-68
2023/02/19 08:30:26;;;;;;;3.30;0.90;;;;;;;;;;5024413;28;20467;-69
2023/02/19 08:32:52;;;;;;;2.22;0.90;;;;;;;;;;5036137;28;20025;-67
2023/02/19 08:35:17;;;;;;;2.78;0.88;;;;;;;;;;5029517;28;20024;-68
2023/02/19 08:37:42;;;;;;;2.80;0.80;;;;;;;;;;5029060;28;20075;-67
2023/02/19 08:40:08;;;;;;;1.48;0.60;;;;;;;;;;5026328;28;20021;-66
2023/02/19 08:42:33;;;;;;;2.17;0.65;;;;;;;;;;5024791;28;20358;-68
2023/02/19 08:44:58;;;;;;;5.53;0.80;;;;;;;;;;5028039;28;20021;-68
2023/02/19 08:47:23;;;;;;;2.03;0.80;;;;;;;;;;5021638;28;20092;-66
2023/02/19 08:49:48;;;;;;;2.13;0.70;;;;;;;;;;5031017;28;20045;-67
2023/02/19 08:52:13;;;;;;;2.30;0.80;;;;;;;;;;5028312;28;20525;-68
2023/02/19 08:54:38;;;;;;;2.40;0.70;;;;;;;;;;5032886;28;20026;-67
2023/02/19 08:57:04;;;;;;;2.95;1.00;;;;;;;;;;5037916;28;20396;-68
2023/02/19 08:59:29;;;;;;;2.93;0.97;;;;;;;;;;5030937;28;20454;-68
2023/02/19 09:01:54;;;;;;;2.90;1.10;;;;;;;;;;5024486;28;20025;-68
2023/02/19 09:04:19;;;;;;;4.82;1.30;;;;;;;;;;5034792;28;20031;-67
2023/02/19 09:06:44;;;;;;;3.03;1.25;;;;;;;;;;5046220;28;20373;-68
2023/02/19 09:09:09;;;;;;;4.30;1.57;;;;;;;;;;5031491;28;20017;-69
2023/02/19 09:11:37;;;;;;;4.25;1.52;;;;;;;;;;5026250;28;20059;-67
2023/02/19 09:14:04;;;;;;;3.78;1.30;;;;;;;;;;5028338;28;20025;-67
2023/02/19 09:16:29;;;;;;;3.78;1.40;;;;;;;;;;5031999;28;20451;-66
2023/02/19 09:18:55;;;;;;;3.92;1.30;;;;;;;;;;5029398;28;20025;-68
2023/02/19 09:21:20;;;;;;;4.07;1.20;;;;;;;;;;5031479;28;20120;-66
2023/02/19 09:23:45;;;;;;;4.28;1.00;;;;;;;;;;5031804;28;20033;-66
2023/02/19 09:26:10;;;;;;;4.75;1.10;;;;;;;;;;5030264;28;20025;-69
2023/02/19 09:28:38;;;;;;;2.97;1.20;;;;;;;;;;5030798;28;20025;-68
2023/02/19 09:31:04;;;;;;;3.45;0.82;;;;;;;;;;5031869;28;20033;-67
2023/02/19 09:33:29;;;;;;;2.72;0.90;;;;;;;;;;5030729;28;20036;-65
2023/02/19 09:35:57;;;;;;;2.47;0.87;;;;;;;;;;5031766;28;20032;-67
2023/02/19 09:38:22;;;;;;;4.00;1.02;;;;;;;;;;5032385;28;20033;-66
2023/02/19 09:40:48;;;;;;;2.97;0.50;;;;;;;;;;5029965;28;20112;-68
2023/02/19 09:43:19;;;;;;;3.58;0.70;;;;;;;;;;5029953;28;20032;-69
2023/02/19 09:45:44;;;;;;;4.65;0.65;;;;;;;;;;5027996;28;20057;-66
2023/02/19 09:48:10;;;;;;;4.30;0.60;;;;;;;;;;5023507;28;20068;-66
2023/02/19 09:50:41;;;;;;;2.08;0.45;;;;;;;;;;5029382;28;20029;-66
2023/02/19 09:53:28;;;;;;;3.17;0.60;;;;;;;;;;5030825;28;20017;-69
2023/02/19 09:55:54;;;;;;;2.95;0.60;;;;;;;;;;5028810;28;20018;-68
2023/02/19 09:58:28;;;;;;;2.72;0.60;;;;;;;;;;5029919;28;20076;-67
2023/02/19 10:00:55;;;;;;;3.45;0.68;;;;;;;;;;5029065;28;20440;-66
2023/02/19 10:03:24;;;;;;;4.57;0.80;;;;;;;;;;5038944;28;20086;-68
2023/02/19 10:05:49;;;;;;;2.33;0.70;;;;;;;;;;5040101;28;20082;-67
2023/02/19 10:08:17;;;;;;;4.33;0.80;;;;;;;;;;5029689;28;20029;-68
2023/02/19 10:10:43;;;;;;;1.77;0.68;;;;;;;;;;5028987;28;20029;-68
2023/02/19 10:13:22;;;;;;;2.60;0.57;;;;;;;;;;5030369;28;20020;-68
2023/02/19 10:15:55;;;;;;;5.82;1.35;;;;;;;;;;5030906;28;20014;-69
2023/02/19 10:18:27;;;;;;;2.92;0.73;;;;;;;;;;5026777;28;20020;-68
2023/02/19 10:20:52;;;;;;;2.78;0.80;;;;;;;;;;5027846;28;20041;-66
2023/02/19 10:23:17;;;;;;;3.03;0.93;;;;;;;;;;5027181;28;20463;-67
2023/02/19 10:25:48;;;;;;;3.77;1.30;;;;;;;;;;5026016;28;20028;-68
2023/02/19 10:28:14;;;;;;;4.53;1.05;;;;;;;;;;5027521;28;20032;-68
2023/02/19 10:30:40;;;;;;;3.22;1.20;;;;;;;;;;5028209;28;20163;-68
2023/02/19 10:33:12;;;;;;;3.85;1.20;;;;;;;;;;5024110;28;20100;-67
2023/02/19 10:35:49;;;;;;;3.22;1.00;;;;;;;;;;5021690;28;20055;-68
2023/02/19 10:38:15;;;;;;;2.80;0.82;;;;;;;;;;5028177;28;20025;-66
2023/02/19 10:40:42;;;;;;;5.32;1.20;;;;;;;;;;5025878;28;20087;-66
2023/02/19 10:43:18;;;;;;;3.35;1.00;;;;;;;;;;5028939;28;20026;-68
2023/02/19 10:45:47;;;;;;;2.10;0.70;;;;;;;;;;5021359;28;20104;-66
2023/02/19 10:48:29;;;;;;;3.72;0.82;;;;;;;;;;5025527;28;20048;-66
2023/02/19 10:50:57;;;;;;;3.67;0.80;;;;;;;;;;5023536;28;20281;-66
2023/02/19 10:53:22;;;;;;;2.42;0.85;;;;;;;;;;5017500;28;20041;-67
2023/02/19 10:56:03;;;;;;;4.50;1.10;;;;;;;;;;5019374;28;20697;-67
2023/02/19 10:58:29;;;;;;;4.05;1.10;;;;;;;;;;5023639;28;20036;-67
2023/02/19 11:01:09;;;;;;;4.90;1.30;;;;;;;;;;5028118;28;20038;-67
2023/02/19 11:03:34;;;;;;;3.60;1.10;;;;;;;;;;5027814;28;20090;-67
2023/02/19 11:06:01;;;;;;;3.30;1.13;;;;;;;;;;5033095;28;20104;-67
2023/02/19 11:08:26;;;;;;;;;;;;;;;;;;5029739;28;20480;-67
2023/02/19 11:10:51;;;;;;;6.18;1.73;;;;;;;;;;5030559;28;20281;-67
2023/02/19 11:13:21;;;;;;;3.93;0.90;;;;;;;;;;5030724;28;20028;-66
2023/02/19 11:15:50;;;;;;;4.03;1.13;;;;;;;;;;5029526;28;20021;-66
2023/02/19 11:18:22;;;;;;;3.58;1.00;;;;;;;;;;5028850;28;20029;-66
2023/02/19 11:20:55;;;;;;;3.20;1.05;;;;;;;;;;5028047;28;20374;-66
2023/02/19 11:23:23;;;;;;;4.60;1.45;;;;;;;;;;5032340;28;20013;-65
2023/02/19 11:25:49;;;;;;;3.83;0.82;;;;;;;;;;5034914;28;20025;-65
2023/02/19 11:28:34;;;;;;;3.30;0.90;;;;;;;;;;5039714;28;20514;-67
2023/02/19 11:31:17;;;;;;;2.83;0.80;;;;;;;;;;5027613;28;20036;-67
2023/02/19 11:33:59;;;;;;;3.55;1.00;;;;;;;;;;5029385;28;20032;-67
2023/02/19 11:36:26;;;;;;;4.30;1.00;;;;;;;;;;5017253;28;20057;-67
2023/02/19 11:38:52;;;;;;;3.85;0.90;;;;;;;;;;5028468;28;20673;-66
2023/02/19 11:41:17;;;;;;;3.15;0.77;;;;;;;;;;5017679;28;20033;-67
2023/02/19 11:44:02;;;;;;;3.22;0.82;;;;;;;;;;5042563;28;20166;-68
2023/02/19 11:46:47;;;;;;;4.15;1.00;;;;;;;;;;5027103;28;20369;-66
2023/02/19 11:49:19;;;;;;;3.47;0.90;;;;;;;;;;5017936;28;20552;-66
2023/02/19 11:51:44;;;;;;;3.15;0.90;;;;;;;;;;5021500;28;20029;-69
2023/02/19 11:54:25;;;;;;;3.03;0.68;;;;;;;;;;5017044;28;20032;-69
2023/02/19 11:57:11;;;;;;;3.75;1.10;;;;;;;;;;5019035;28;20121;-69
2023/02/19 11:59:42;;;;;;;2.55;0.80;;;;;;;;;;5010450;28;20044;-68
2023/02/19 12:02:22;;;;;;;2.58;0.75;;;;;;;;;;5023283;28;20026;-67
2023/02/19 12:04:48;;;;;;;4.43;0.77;;;;;;;;;;5017491;28;20053;-70
2023/02/19 12:07:32;;;;;;;4.90;0.80;;;;;;;;;;5020334;28;20135;-67
2023/02/19 12:10:09;;;;;;;4.97;0.90;;;;;;;;;;5021298;28;20029;-67
2023/02/19 12:12:51;;;;;;;2.92;0.90;;;;;;;;;;5021681;28;20026;-70
2023/02/19 12:15:26;;;;;;;3.50;0.75;;;;;;;;;;5020687;28;20083;-69
2023/02/19 12:17:51;;;;;;;4.95;0.90;;;;;;;;;;5024557;28;20144;-68
2023/02/19 12:20:33;;;;;;;6.40;0.90;;;;;;;;;;5020005;28;20109;-68
2023/02/19 12:23:13;;;;;;;3.33;0.70;;;;;;;;;;5022030;28;20116;-70
2023/02/19 12:25:49;;;;;;;5.60;0.90;;;;;;;;;;5016961;28;20428;-68
2023/02/19 12:28:14;;;;;;;6.30;1.02;;;;;;;;;;5022837;28;20074;-69
2023/02/19 12:30:46;;;;;;;5.40;1.00;;;;;;;;;;5022978;28;20025;-69
2023/02/19 12:33:11;;;;;;;5.05;1.08;;;;;;;;;;5023662;28;20116;-70
2023/02/19 12:35:39;;;;;;;4.43;1.00;;;;;;;;;;5025506;28;20100;-70
2023/02/19 12:38:19;;;;;;;3.97;0.75;;;;;;;;;;5024990;28;20026;-69
2023/02/19 12:40:44;;;;;;;2.38;0.73;;;;;;;;;;5027872;28;20120;-70
2023/02/19 12:43:14;;;;;;;2.53;0.50;;;;;;;;;;5033259;28;20168;-70
2023/02/19 12:45:43;;;;;;;2.83;0.77;;;;;;;;;;5024145;28;20047;-70
2023/02/19 12:48:12;;;;;;;5.00;0.90;;;;;;;;;;5024284;28;20063;-69
2023/02/19 12:50:39;;;;;;;3.15;0.60;;;;;;;;;;5022749;28;20025;-68
2023/02/19 12:53:16;;;;;;;5.47;0.70;;;;;;;;;;5033244;28;20026;-68
2023/02/19 12:55:43;;;;;;;4.10;0.80;;;;;;;;;;5035907;28;20024;-68
2023/02/19 12:58:12;;;;;;;4.75;0.80;;;;;;;;;;5022813;28;20028;-68
2023/02/19 13:00:40;;;;;;;5.97;0.70;;;;;;;;;;5019093;28;20029;-69
2023/02/19 13:03:11;;;;;;;4.28;0.77;;;;;;;;;;5030536;28;20037;-69
2023/02/19 13:05:41;;;;;;;3.67;0.82;;;;;;;;;;5022839;28;20040;-69
2023/02/19 13:08:06;;;;;;;5.47;0.90;;;;;;;;;;5023350;28;20108;-69
2023/02/19 13:10:46;;;;;;;4.93;1.20;;;;;;;;;;5023493;28;20136;-69
2023/02/19 13:13:16;;;;;;;8.10;1.20;;;;;;;;;;5026961;28;20052;-69
2023/02/19 13:15:44;;;;;;;4.18;0.75;;;;;;;;;;5027316;28;20027;-67
2023/02/19 13:18:15;;;;;;;7.15;1.02;;;;;;;;;;5025957;28;20018;-68
2023/02/19 13:20:41;;;;;;;4.22;0.90;;;;;;;;;;5027594;28;20392;-68
2023/02/19 13:26:20;;;;;;;;;;;;;;;;;;5020349;28;20033;-68
2023/02/19 13:29:00;;;;;;;4.10;0.90;;;;;;;;;;5030729;28;19974;-68
2023/02/19 13:31:25;;;;;;;3.83;0.80;;;;;;;;;;5030911;28;20488;-68
2023/02/19 13:34:08;;;;;;;2.03;0.65;;;;;;;;;;5030869;28;20509;-68
2023/02/19 13:36:34;;;;;;;4.60;0.70;;;;;;;;;;5022403;28;20544;-68
2023/02/19 13:39:03;;;;;;;2.17;0.52;;;;;;;;;;5030134;28;20505;-68
2023/02/19 13:41:30;;;;;;;3.85;0.55;;;;;;;;;;5028663;28;20025;-67
2023/02/19 13:43:57;;;;;;;1.08;0.40;;;;;;;;;;5029241;28;20400;-68
2023/02/19 13:46:22;;;;;;;;;;;;;;;;;;5029872;28;20025;-67
2023/02/19 13:48:47;;;;;;;5.50;0.50;;;;;;;;;;5030200;28;19909;-69
2023/02/19 13:51:15;;;;;;;2.60;0.50;;;;;;;;;;5021261;28;20069;-68
2023/02/19 13:53:47;;;;;;;2.47;0.52;;;;;;;;;;5012304;28;20033;-67
2023/02/19 13:56:30;;;;;;;4.00;1.05;;;;;;;;;;5026351;28;20029;-69
2023/02/19 13:59:14;;;;;;;3.67;0.52;;;;;;;;;;5032790;28;20037;-69
2023/02/19 14:01:48;;;;;;;1.90;0.50;;;;;;;;;;5025495;28;20042;-67
2023/02/19 14:04:20;;;;;;;12.52;4.22;;;;;;;;;;5030012;28;20021;-68
2023/02/19 14:07:11;;;;;;;2.70;0.52;;;;;;;;;;5028321;28;20095;-67
2023/02/19 14:09:36;;;;;;;3.63;0.90;;;;;;;;;;5028683;28;20087;-69
2023/02/19 14:12:14;;;;;;;3.65;0.80;;;;;;;;;;5029869;28;20737;-67
2023/02/19 14:14:45;;;;;;;3.92;0.57;;;;;;;;;;5029483;28;20029;-69
2023/02/19 14:17:42;;;;;;;4.15;0.60;;;;;;;;;;5027425;28;20033;-69
2023/02/19 14:20:07;;;;;;;2.08;0.60;;;;;;;;;;5017156;28;20069;-68
2023/02/19 14:25:20;;;;;;;6.72;1.15;;;;;;;;;;5030098;28;20025;-69
2023/02/19 14:27:46;;;;;;;5.85;1.00;;;;;;;;;;5030117;28;20181;-67
2023/02/19 14:30:12;;;;;;;3.55;0.57;;;;;;;;;;5029754;28;20022;-67
2023/02/19 14:32:38;;;;;;;3.83;0.60;;;;;;;;;;5030878;28;20025;-68
2023/02/19 14:35:04;;;;;;;2.28;0.52;;;;;;;;;;5027761;28;20033;-67
2023/02/19 14:37:29;;;;;;;2.97;0.65;;;;;;;;;;5029107;28;20025;-69
2023/02/19 14:39:56;;;;;;;2.30;0.47;;;;;;;;;;5029163;28;20036;-67
2023/02/19 14:42:25;;;;;;;2.25;0.60;;;;;;;;;;5029650;28;20013;-69
2023/02/19 14:44:53;;;;;;;4.00;0.73;;;;;;;;;;5029284;28;20037;-68
2023/02/19 14:47:19;;;;;;;3.95;0.90;;;;;;;;;;5029246;28;20130;-69
2023/02/19 14:49:49;;;;;;;5.22;0.80;;;;;;;;;;5028931;28;20370;-66
2023/02/19 14:52:20;;;;;;;3.53;0.70;;;;;;;;;;5030735;28;20029;-67
2023/02/19 14:54:51;;;;;;;3.22;0.63;;;;;;;;;;5030977;28;20017;-68
2023/02/19 14:57:18;;;;;;;3.70;0.73;;;;;;;;;;5028692;28;20525;-69
2023/02/19 15:00:04;;;;;;;4.25;0.70;;;;;;;;;;5030115;28;20374;-68
2023/02/19 15:02:30;;;;;;;3.78;0.65;;;;;;;;;;5030056;28;20407;-69
2023/02/19 15:04:55;;;;;;;5.88;0.88;;;;;;;;;;5028736;28;20511;-67
2023/02/19 15:07:25;;;;;;;9.53;2.10;;;;;;;;;;5027279;28;20033;-69
2023/02/19 15:09:52;;;;;;;8.68;2.33;;;;;;;;;;5026504;28;20505;-70
2023/02/19 15:12:17;;;;;;;;;;;;;;;;;;5019734;28;20021;-69
2023/02/19 15:14:43;;;;;;;2.97;1.00;;;;;;;;;;5028035;28;19909;-69
2023/02/19 15:17:12;;;;;;;4.30;0.88;;;;;;;;;;5029412;28;20021;-69
2023/02/19 15:19:38;;;;;;;3.90;0.88;;;;;;;;;;5029377;28;20408;-67